createdAt,value
2023-04-11T00:00:56.066Z,63.95
2023-04-11T00:03:23.185Z,63.68
2023-04-11T00:05:50.562Z,64.05
2023-04-11T00:08:17.534Z,63.87
2023-04-11T00:10:45.659Z,63.69
2023-04-11T00:13:12.731Z,64.05
2023-04-11T00:15:39.597Z,64.08
2023-04-11T00:18:07.270Z,63.88
2023-04-11T00:20:34.289Z,63.84
2023-04-11T00:23:01.221Z,63.92
2023-04-11T00:25:30.205Z,64.13
2023-04-11T00:27:57.346Z,63.97
2023-04-11T00:30:24.112Z,64.22
2023-04-11T00:32:51.155Z,64.30
2023-04-11T00:35:18.241Z,64.92
2023-04-11T00:37:45.697Z,64.80
2023-04-11T00:40:14.385Z,64.98
2023-04-11T00:42:41.370Z,64.87
2023-04-11T00:45:08.743Z,65.39
2023-04-11T00:47:35.627Z,65.81
2023-04-11T00:50:02.523Z,65.84
2023-04-11T00:52:29.263Z,66.14
2023-04-11T00:54:56.116Z,66.20
2023-04-11T00:57:26.224Z,66.23
2023-04-11T00:59:53.004Z,65.92
2023-04-11T01:02:19.816Z,66.06
2023-04-11T01:04:46.881Z,65.79
2023-04-11T01:07:13.708Z,65.47
2023-04-11T01:09:40.517Z,65.34
2023-04-11T01:12:07.456Z,65.37
2023-04-11T01:14:34.271Z,65.27
2023-04-11T01:17:02.425Z,65.60
2023-04-11T01:19:29.537Z,65.97
2023-04-11T01:21:56.648Z,66.02
2023-04-11T01:24:23.529Z,66.25
2023-04-11T01:26:50.381Z,66.03
2023-04-11T01:29:17.119Z,66.54
2023-04-11T01:31:44.146Z,66.39
2023-04-11T01:34:13.578Z,66.31
2023-04-11T01:36:41.810Z,66.07
2023-04-11T01:39:08.629Z,66.24
2023-04-11T01:41:35.986Z,66.32
2023-04-11T01:44:04.205Z,66.09
2023-04-11T01:46:31.412Z,65.93
2023-04-11T01:48:59.134Z,65.86
2023-04-11T01:51:26.203Z,65.87
2023-04-11T01:53:52.919Z,65.81
2023-04-11T01:56:19.800Z,65.72
2023-04-11T01:58:46.598Z,65.58
2023-04-11T02:01:13.532Z,65.48
2023-04-11T02:03:40.833Z,65.65
2023-04-11T02:06:07.840Z,65.59
2023-04-11T02:08:34.689Z,65.43
2023-04-11T02:11:01.641Z,65.54
2023-04-11T02:13:28.411Z,65.85
2023-04-11T02:15:55.127Z,65.59
2023-04-11T02:18:21.992Z,65.90
2023-04-11T02:20:50.266Z,65.86
2023-04-11T02:23:17.090Z,66.37
2023-04-11T02:25:44.013Z,66.15
2023-04-11T02:28:10.875Z,65.97
2023-04-11T02:30:37.797Z,66.35
2023-04-11T02:33:04.850Z,66.29
2023-04-11T02:35:31.697Z,66.08
2023-04-11T02:37:58.763Z,66.47
2023-04-11T02:40:26.111Z,66.53
2023-04-11T02:42:55.425Z,66.29
2023-04-11T02:45:22.375Z,66.53
2023-04-11T02:47:49.242Z,66.73
2023-04-11T02:50:16.204Z,66.73
2023-04-11T02:52:46.583Z,66.73
2023-04-11T02:55:14.530Z,67.12
2023-04-11T02:57:41.322Z,66.90
2023-04-11T03:00:09.682Z,66.83
2023-04-11T03:02:36.826Z,66.89
2023-04-11T03:05:04.344Z,66.60
2023-04-11T03:07:32.439Z,67.12
2023-04-11T03:10:02.341Z,66.89
2023-04-11T03:12:29.171Z,66.47
2023-04-11T03:14:55.939Z,66.44
2023-04-11T03:17:22.852Z,66.56
2023-04-11T03:19:49.717Z,66.48
2023-04-11T03:22:17.446Z,66.56
2023-04-11T03:24:44.369Z,66.86
2023-04-11T03:27:11.180Z,66.84
2023-04-11T03:29:38.372Z,67.03
2023-04-11T03:32:05.630Z,66.80
2023-04-11T03:34:32.686Z,66.54
2023-04-11T03:36:59.502Z,66.55
2023-04-11T03:39:26.694Z,66.46
2023-04-11T03:41:53.545Z,66.33
2023-04-11T03:44:20.342Z,66.14
2023-04-11T03:46:47.093Z,66.20
2023-04-11T03:49:13.949Z,66.59
2023-04-11T03:51:40.947Z,66.78
2023-04-11T03:54:07.728Z,66.76
2023-04-11T03:56:34.589Z,67.48
2023-04-11T03:59:01.781Z,67.17
2023-04-11T04:01:28.610Z,67.46
2023-04-11T04:03:56.132Z,67.25
2023-04-11T04:06:23.353Z,67.00
2023-04-11T04:08:50.099Z,67.31
2023-04-11T04:11:17.054Z,66.92
2023-04-11T04:13:43.846Z,67.07
2023-04-11T04:16:10.714Z,67.31
2023-04-11T04:18:37.651Z,66.90
2023-04-11T04:21:04.483Z,66.97
2023-04-11T04:23:32.603Z,66.84
2023-04-11T04:26:02.460Z,66.50
2023-04-11T04:28:29.616Z,66.75
2023-04-11T04:30:58.234Z,66.83
2023-04-11T04:33:26.408Z,67.21
2023-04-11T04:35:58.228Z,66.92
2023-04-11T04:38:26.373Z,67.45
2023-04-11T04:40:54.981Z,67.74
2023-04-11T04:43:23.161Z,67.80
2023-04-11T04:45:50.274Z,67.54
2023-04-11T04:48:17.561Z,67.58
2023-04-11T04:50:45.843Z,67.37
2023-04-11T04:53:13.205Z,67.24
2023-04-11T04:55:39.925Z,66.83
2023-04-11T04:58:06.660Z,67.26
2023-04-11T05:00:33.861Z,67.20
2023-04-11T05:03:00.835Z,67.06
2023-04-11T05:05:27.725Z,67.08
2023-04-11T05:07:54.548Z,67.01
2023-04-11T05:10:21.437Z,67.35
2023-04-11T05:12:48.381Z,67.24
2023-04-11T05:15:15.518Z,67.53
2023-04-11T05:17:43.005Z,67.96
2023-04-11T05:20:10.452Z,68.43
2023-04-11T05:22:38.299Z,68.96
2023-04-11T05:25:05.985Z,69.86
2023-04-11T05:27:32.752Z,70.53
2023-04-11T05:30:01.244Z,70.77
2023-04-11T05:32:28.018Z,71.10
2023-04-11T05:34:58.684Z,71.08
2023-04-11T05:37:26.322Z,71.14
2023-04-11T05:39:53.221Z,70.91
2023-04-11T05:42:20.079Z,71.40
2023-04-11T05:44:46.917Z,71.48
2023-04-11T05:47:13.721Z,71.70
2023-04-11T05:49:40.665Z,71.80
2023-04-11T05:52:07.608Z,71.87
2023-04-11T05:54:35.556Z,71.84
2023-04-11T05:57:02.884Z,72.04
2023-04-11T05:59:33.307Z,72.35
2023-04-11T06:02:00.242Z,72.35
2023-04-11T06:04:27.257Z,72.20
2023-04-11T06:06:55.798Z,72.06
2023-04-11T06:09:22.549Z,72.24
2023-04-11T06:11:49.270Z,72.14
2023-04-11T06:14:16.267Z,72.16
2023-04-11T06:16:43.022Z,72.41
2023-04-11T06:19:09.928Z,72.25
2023-04-11T06:21:36.786Z,72.07
2023-04-11T06:24:10.299Z,71.92
2023-04-11T06:26:37.317Z,71.74
2023-04-11T06:29:04.561Z,71.81
2023-04-11T06:31:31.389Z,71.93
2023-04-11T06:33:58.841Z,71.93
2023-04-11T06:36:26.158Z,71.94
2023-04-11T06:38:53.075Z,71.75
2023-04-11T06:41:19.961Z,71.92
2023-04-11T06:43:46.748Z,72.27
2023-04-11T06:46:13.622Z,72.18
2023-04-11T06:48:40.544Z,72.65
2023-04-11T06:51:09.222Z,72.63
2023-04-11T06:53:36.123Z,73.08
2023-04-11T06:56:11.480Z,73.35
2023-04-11T06:58:38.217Z,73.55
2023-04-11T07:01:05.204Z,73.32
2023-04-11T07:03:32.731Z,73.68
2023-04-11T07:05:59.694Z,73.73
2023-04-11T07:08:26.447Z,74.06
2023-04-11T07:10:53.269Z,74.46
2023-04-11T07:13:21.470Z,74.56
2023-04-11T07:15:48.335Z,74.22
2023-04-11T07:18:15.308Z,74.72
2023-04-11T07:20:42.125Z,74.17
2023-04-11T07:23:08.969Z,74.06
2023-04-11T07:25:35.821Z,74.27
2023-04-11T07:28:08.289Z,74.14
2023-04-11T07:30:38.406Z,74.40
2023-04-11T07:33:05.503Z,74.07
2023-04-11T07:35:34.828Z,74.31
2023-04-11T07:38:01.948Z,73.80
2023-04-11T07:40:29.098Z,73.37
2023-04-11T07:42:55.828Z,73.67
2023-04-11T07:45:22.849Z,73.74
2023-04-11T07:47:49.681Z,73.53
2023-04-11T07:50:16.426Z,73.80
2023-04-11T07:52:43.488Z,73.92
2023-04-11T07:55:13.079Z,74.06
2023-04-11T07:57:39.858Z,74.07
2023-04-11T08:00:10.218Z,74.71
2023-04-11T08:02:38.369Z,74.30
2023-04-11T08:05:05.618Z,74.27
2023-04-11T08:07:32.684Z,74.12
2023-04-11T08:09:59.666Z,74.56
2023-04-11T08:12:26.430Z,74.66
2023-04-11T08:14:53.412Z,74.05
2023-04-11T08:17:27.595Z,73.12
2023-04-11T08:19:58.153Z,72.10
2023-04-11T08:22:26.078Z,71.27
2023-04-11T08:24:52.919Z,71.42
2023-04-11T08:27:20.142Z,71.12
2023-04-11T08:29:46.923Z,71.87
2023-04-11T08:32:13.648Z,72.97
2023-04-11T08:34:40.608Z,74.68
2023-04-11T08:37:07.394Z,74.47
2023-04-11T08:39:34.255Z,73.99
2023-04-11T08:42:01.356Z,73.60
2023-04-11T08:44:28.077Z,72.09
2023-04-11T08:46:54.836Z,70.95
2023-04-11T08:49:24.748Z,69.85
2023-04-11T08:51:53.425Z,68.15
2023-04-11T08:54:20.165Z,67.45
2023-04-11T08:56:47.764Z,67.36
2023-04-11T08:59:14.484Z,67.99
2023-04-11T09:01:41.435Z,68.38
2023-04-11T09:04:08.848Z,66.98
2023-04-11T09:06:35.611Z,65.46
2023-04-11T09:09:08.225Z,64.43
2023-04-11T09:11:54.201Z,63.58
2023-04-11T09:14:24.641Z,63.09
2023-04-11T09:17:06.978Z,62.48
2023-04-11T09:19:35.072Z,62.08
2023-04-11T09:22:05.496Z,61.91
2023-04-11T09:24:33.990Z,61.88
2023-04-11T09:27:15.970Z,61.88
2023-04-11T09:29:45.646Z,62.00
2023-04-11T09:32:34.684Z,62.73
2023-04-11T09:35:07.820Z,64.67
2023-04-11T09:37:58.405Z,65.67
2023-04-11T09:40:27.888Z,66.14
2023-04-11T09:42:57.871Z,65.29
2023-04-11T09:45:25.509Z,63.14
2023-04-11T09:47:53.908Z,61.39
2023-04-11T09:50:20.934Z,59.39
2023-04-11T09:52:47.743Z,57.76
2023-04-11T09:55:16.579Z,57.24
2023-04-11T09:57:50.556Z,57.25
2023-04-11T10:00:30.450Z,57.80
2023-04-11T10:02:57.434Z,58.06
2023-04-11T10:05:28.597Z,57.77
2023-04-11T10:08:33.041Z,55.62
2023-04-11T10:11:00.320Z,54.22
2023-04-11T10:13:43.145Z,53.08
2023-04-11T10:16:13.643Z,53.33
2023-04-11T10:19:04.778Z,53.67
2023-04-11T10:21:32.901Z,53.64
2023-04-11T10:24:16.274Z,53.56
2023-04-11T10:27:05.013Z,52.48
2023-04-11T10:29:34.946Z,52.37
2023-04-11T10:32:14.039Z,51.71
2023-04-11T10:34:42.199Z,53.83
2023-04-11T10:37:09.880Z,52.99
2023-04-11T10:39:52.125Z,50.69
2023-04-11T10:42:28.393Z,49.91
2023-04-11T10:45:13.690Z,49.79
2023-04-11T10:47:40.568Z,49.07
2023-04-11T10:50:35.361Z,47.75
2023-04-11T10:53:05.435Z,46.48
2023-04-11T10:55:48.674Z,44.87
2023-04-11T10:58:22.364Z,45.05
2023-04-11T11:00:52.633Z,45.78
2023-04-11T11:03:30.951Z,44.83
2023-04-11T11:05:59.302Z,44.72
2023-04-11T11:08:38.057Z,43.53
2023-04-11T11:11:08.691Z,42.70
2023-04-11T11:13:43.443Z,41.02
2023-04-11T11:16:16.765Z,40.68
2023-04-11T11:19:01.781Z,39.69
2023-04-11T11:21:30.518Z,39.77
2023-04-11T11:24:01.100Z,40.11
2023-04-11T11:26:43.701Z,39.90
2023-04-11T11:29:10.810Z,40.58
2023-04-11T11:31:42.094Z,39.86
2023-04-11T11:34:23.052Z,39.43
2023-04-11T11:36:50.744Z,39.61
2023-04-11T11:39:18.219Z,40.45
2023-04-11T11:41:46.030Z,40.18
2023-04-11T11:44:26.670Z,40.18
2023-04-11T11:47:27.342Z,39.55
2023-04-11T11:49:54.997Z,39.78
2023-04-11T11:52:41.119Z,40.26
2023-04-11T11:55:11.371Z,40.77
2023-04-11T11:57:38.693Z,41.17
2023-04-11T12:00:06.168Z,41.26
2023-04-11T12:02:34.612Z,42.13
2023-04-11T12:05:04.172Z,42.71
2023-04-11T12:07:34.883Z,42.92
2023-04-11T12:10:02.291Z,42.78
2023-04-11T12:12:38.731Z,42.49
2023-04-11T12:15:18.518Z,40.63
2023-04-11T12:17:50.204Z,41.25
2023-04-11T12:20:17.057Z,40.21
2023-04-11T12:22:43.816Z,39.76
2023-04-11T12:25:14.781Z,39.29
2023-04-11T12:27:42.596Z,39.22
2023-04-11T12:30:10.229Z,39.32
2023-04-11T12:32:37.297Z,39.42
2023-04-11T12:35:05.309Z,39.21
2023-04-11T12:37:32.726Z,38.48
2023-04-11T12:39:59.635Z,38.89
2023-04-11T12:42:27.367Z,39.04
2023-04-11T12:44:54.629Z,39.39
2023-04-11T12:47:21.605Z,39.97
2023-04-11T12:49:48.430Z,39.87
2023-04-11T12:52:15.209Z,40.76
2023-04-11T12:54:42.174Z,40.39
2023-04-11T12:57:08.901Z,39.06
2023-04-11T12:59:35.726Z,38.41
2023-04-11T13:02:03.251Z,38.43
2023-04-11T13:04:30.620Z,38.29
2023-04-11T13:07:01.402Z,38.25
2023-04-11T13:09:29.883Z,36.51
2023-04-11T13:11:57.876Z,36.03
2023-04-11T13:14:24.722Z,35.22
2023-04-11T13:16:51.994Z,35.50
2023-04-11T13:19:18.808Z,36.22
2023-04-11T13:21:45.707Z,36.71
2023-04-11T13:24:12.620Z,37.25
2023-04-11T13:26:39.745Z,37.69
2023-04-11T13:29:07.751Z,38.44
2023-04-11T13:31:34.633Z,38.63
2023-04-11T13:34:02.414Z,39.31
2023-04-11T13:36:29.321Z,39.79
2023-04-11T13:38:56.948Z,40.23
2023-04-11T13:41:27.071Z,40.38
2023-04-11T13:43:53.916Z,41.31
2023-04-11T13:46:21.956Z,41.43
2023-04-11T13:48:48.934Z,41.31
2023-04-11T13:51:16.056Z,41.63
2023-04-11T13:53:42.826Z,41.97
2023-04-11T13:56:10.801Z,41.93
2023-04-11T13:58:38.348Z,42.00
2023-04-11T14:01:05.370Z,42.21
2023-04-11T14:03:33.913Z,42.26
2023-04-11T14:06:01.281Z,42.84
2023-04-11T14:08:28.909Z,43.30
2023-04-11T14:10:56.001Z,43.20
2023-04-11T14:13:22.906Z,43.44
2023-04-11T14:16:01.391Z,43.46
2023-04-11T14:18:34.625Z,43.53
2023-04-11T14:21:01.940Z,43.59
2023-04-11T14:23:29.378Z,43.92
2023-04-11T14:25:56.305Z,43.80
2023-04-11T14:28:26.536Z,43.99
2023-04-11T14:30:53.952Z,43.96
2023-04-11T14:33:21.020Z,43.85
2023-04-11T14:35:47.823Z,44.27
2023-04-11T14:38:17.472Z,44.43
2023-04-11T14:43:11.404Z,44.62
2023-04-11T14:45:38.246Z,44.77
2023-04-11T14:48:05.744Z,45.34
2023-04-11T14:50:32.611Z,45.65
2023-04-11T14:52:59.368Z,45.57
2023-04-11T14:55:26.331Z,45.70
2023-04-11T14:57:54.194Z,45.69
2023-04-11T15:00:22.026Z,45.94
2023-04-11T15:02:51.367Z,45.75
2023-04-11T15:05:18.248Z,45.68
2023-04-11T15:07:49.015Z,45.38
2023-04-11T15:10:17.548Z,45.66
2023-04-11T15:12:44.373Z,46.08
2023-04-11T15:15:11.445Z,46.14
2023-04-11T15:17:48.929Z,46.86
2023-04-11T15:20:16.107Z,46.57
2023-04-11T15:22:44.498Z,46.50
2023-04-11T15:25:13.277Z,46.76
2023-04-11T15:27:40.595Z,46.97
2023-04-11T15:30:07.899Z,47.23
2023-04-11T15:32:34.927Z,47.26
2023-04-11T15:35:01.851Z,47.43
2023-04-11T15:37:28.870Z,47.34
2023-04-11T15:39:57.779Z,47.66
2023-04-11T15:42:25.147Z,47.68
2023-04-11T15:44:52.026Z,47.47
2023-04-11T15:47:18.813Z,47.78
2023-04-11T15:49:45.982Z,48.12
2023-04-11T15:52:12.822Z,47.77
2023-04-11T15:54:39.631Z,47.64
2023-04-11T15:57:06.408Z,47.47
2023-04-11T15:59:33.957Z,47.73
2023-04-11T16:02:00.869Z,47.71
2023-04-11T16:04:27.770Z,47.46
2023-04-11T16:06:54.798Z,47.70
2023-04-11T16:09:21.533Z,47.63
2023-04-11T16:11:48.295Z,47.50
2023-04-11T16:14:15.127Z,47.24
2023-04-11T16:16:44.455Z,47.29
2023-04-11T16:19:11.213Z,47.19
2023-04-11T16:21:39.058Z,47.31
2023-04-11T16:24:06.988Z,47.47
2023-04-11T16:26:33.787Z,47.51
2023-04-11T16:29:00.727Z,47.50
2023-04-11T16:31:27.688Z,47.69
2023-04-11T16:33:55.423Z,47.73
2023-04-11T16:36:22.596Z,47.40
2023-04-11T16:38:52.496Z,47.35
2023-04-11T16:41:19.398Z,47.42
2023-04-11T16:43:47.039Z,47.15
2023-04-11T16:46:14.495Z,47.65
2023-04-11T16:48:44.253Z,47.14
2023-04-11T16:51:11.502Z,47.42
2023-04-11T16:53:38.924Z,47.49
2023-04-11T16:56:06.084Z,47.76
2023-04-11T16:58:32.919Z,47.75
2023-04-11T17:01:00.168Z,47.63
2023-04-11T17:03:27.397Z,47.59
2023-04-11T17:05:54.378Z,47.61
2023-04-11T17:08:21.473Z,47.93
2023-04-11T17:10:48.263Z,47.76
2023-04-11T17:13:16.142Z,47.86
2023-04-11T17:15:42.973Z,47.81
2023-04-11T17:18:09.766Z,47.99
2023-04-11T17:20:36.857Z,48.34
2023-04-11T17:23:03.649Z,48.09
2023-04-11T17:25:30.382Z,48.34
2023-04-11T17:27:57.778Z,48.37
2023-04-11T17:30:24.647Z,48.65
2023-04-11T17:32:51.504Z,48.74
2023-04-11T17:35:18.567Z,49.04
2023-04-11T17:37:45.344Z,49.10
2023-04-11T17:40:15.404Z,48.95
2023-04-11T17:42:42.247Z,49.13
2023-04-11T17:45:18.093Z,49.28
2023-04-11T17:47:45.644Z,49.39
2023-04-11T17:50:13.111Z,49.67
2023-04-11T17:52:44.312Z,49.87
2023-04-11T17:55:13.257Z,50.05
2023-04-11T17:57:40.244Z,49.81
2023-04-11T18:00:18.391Z,49.78
2023-04-11T18:02:48.273Z,50.23
2023-04-11T18:05:25.012Z,50.32
2023-04-11T18:07:54.227Z,50.48
2023-04-11T18:10:22.206Z,50.64
2023-04-11T18:12:50.202Z,50.75
2023-04-11T18:15:16.958Z,50.94
2023-04-11T18:17:46.493Z,50.77
2023-04-11T18:20:14.237Z,51.01
2023-04-11T18:22:42.526Z,51.09
2023-04-11T18:25:09.542Z,50.93
2023-04-11T18:27:37.417Z,50.73
2023-04-11T18:30:05.748Z,50.96
2023-04-11T18:32:38.264Z,51.11
2023-04-11T18:35:11.874Z,50.93
2023-04-11T18:37:42.853Z,51.08
2023-04-11T18:40:14.274Z,51.60
2023-04-11T18:42:42.466Z,51.85
2023-04-11T18:45:11.890Z,51.88
2023-04-11T18:47:39.064Z,51.32
2023-04-11T18:50:07.077Z,51.62
2023-04-11T18:52:34.966Z,52.00
2023-04-11T18:55:02.059Z,52.30
2023-04-11T18:57:32.307Z,52.50
2023-04-11T19:00:10.277Z,52.70
2023-04-11T19:02:40.101Z,52.88
2023-04-11T19:05:13.982Z,53.27
2023-04-11T19:07:45.352Z,53.24
2023-04-11T19:10:12.228Z,53.19
2023-04-11T19:12:39.302Z,53.29
2023-04-11T19:15:07.892Z,53.30
2023-04-11T19:17:35.973Z,53.49
2023-04-11T19:20:06.940Z,53.56
2023-04-11T19:22:34.675Z,53.41
2023-04-11T19:25:01.501Z,53.36
2023-04-11T19:27:28.418Z,53.60
2023-04-11T19:29:55.183Z,53.60
2023-04-11T19:32:21.999Z,53.74
2023-04-11T19:34:50.802Z,53.97
2023-04-11T19:37:19.501Z,53.95
2023-04-11T19:39:46.373Z,54.10
2023-04-11T19:42:13.910Z,54.16
2023-04-11T19:44:42.123Z,54.19
2023-04-11T19:47:08.896Z,54.24
2023-04-11T19:49:36.003Z,54.15
2023-04-11T19:52:02.787Z,54.27
2023-04-11T19:54:30.873Z,54.07
2023-04-11T19:56:57.741Z,54.16
2023-04-11T19:59:24.479Z,54.36
2023-04-11T20:01:53.781Z,54.22
2023-04-11T20:04:20.710Z,54.23
2023-04-11T20:06:50.761Z,54.72
2023-04-11T20:09:17.593Z,54.90
2023-04-11T20:11:47.337Z,54.91
2023-04-11T20:14:13.974Z,54.80
2023-04-11T20:16:40.880Z,54.73
2023-04-11T20:19:08.614Z,54.88
2023-04-11T20:21:35.503Z,54.90
2023-04-11T20:24:02.448Z,54.72
2023-04-11T20:26:29.412Z,54.97
2023-04-11T20:28:58.352Z,55.27
2023-04-11T20:31:25.751Z,55.22
2023-04-11T20:33:52.853Z,55.08
2023-04-11T20:36:19.795Z,55.15
2023-04-11T20:38:46.722Z,55.23
2023-04-11T20:41:14.033Z,55.32
2023-04-11T20:43:42.502Z,55.44
2023-04-11T20:46:09.338Z,55.48
2023-04-11T20:48:37.929Z,55.39
2023-04-11T20:51:04.871Z,55.79
2023-04-11T20:53:31.682Z,56.00
2023-04-11T20:55:58.637Z,56.05
2023-04-11T20:58:25.693Z,55.72
2023-04-11T21:00:55.957Z,55.75
2023-04-11T21:03:23.189Z,55.88
2023-04-11T21:05:50.289Z,56.36
2023-04-11T21:08:17.100Z,56.20
2023-04-11T21:10:43.997Z,55.83
2023-04-11T21:13:10.767Z,56.04
2023-04-11T21:15:37.564Z,56.38
2023-04-11T21:18:06.839Z,56.58
2023-04-11T21:20:34.623Z,56.74
2023-04-11T21:23:02.781Z,56.52
2023-04-11T21:25:29.685Z,56.41
2023-04-11T21:27:56.443Z,56.61
2023-04-11T21:30:23.372Z,56.47
2023-04-11T21:32:50.354Z,56.52
2023-04-11T21:35:17.175Z,56.28
2023-04-11T21:37:44.442Z,56.27
2023-04-11T21:40:12.943Z,56.23
2023-04-11T21:42:39.897Z,56.31
2023-04-11T21:45:08.403Z,56.43
2023-04-11T21:47:35.399Z,56.32
2023-04-11T21:50:02.427Z,56.32
2023-04-11T21:52:29.176Z,56.62
2023-04-11T21:54:56.161Z,56.60
2023-04-11T21:57:22.911Z,56.84
2023-04-11T21:59:49.658Z,56.92
2023-04-11T22:02:16.592Z,56.87
2023-04-11T22:04:56.436Z,57.07
2023-04-11T22:07:32.411Z,57.31
2023-04-11T22:10:03.573Z,57.03
2023-04-11T22:12:30.490Z,57.44
2023-04-11T22:14:57.413Z,57.44
2023-04-11T22:17:24.244Z,57.43
2023-04-11T22:19:51.169Z,57.55
2023-04-11T22:22:18.821Z,57.76
2023-04-11T22:24:48.980Z,57.67
2023-04-11T22:27:18.413Z,57.90
2023-04-11T22:29:45.538Z,57.48
2023-04-11T22:32:12.412Z,57.88
2023-04-11T22:34:39.392Z,57.76
2023-04-11T22:37:06.142Z,58.11
2023-04-11T22:39:33.365Z,57.78
2023-04-11T22:42:00.522Z,57.86
2023-04-11T22:44:27.264Z,58.03
2023-04-11T22:47:01.370Z,58.04
2023-04-11T22:49:28.143Z,58.09
2023-04-11T22:51:59.446Z,57.99
2023-04-11T22:54:27.488Z,58.37
2023-04-11T22:56:56.850Z,58.13
2023-04-11T22:59:24.590Z,58.07
2023-04-11T23:01:53.003Z,58.63
2023-04-11T23:04:20.738Z,58.36
2023-04-11T23:06:50.115Z,58.58
2023-04-11T23:09:17.993Z,58.50
2023-04-11T23:11:45.527Z,58.23
2023-04-11T23:14:14.295Z,58.42
2023-04-11T23:16:42.079Z,58.59
2023-04-11T23:19:09.314Z,58.36
2023-04-11T23:21:37.351Z,58.49
2023-04-11T23:24:05.441Z,58.85
2023-04-11T23:26:32.292Z,58.77
2023-04-11T23:29:00.840Z,58.67
2023-04-11T23:31:27.751Z,58.63
2023-04-11T23:33:54.911Z,58.72
2023-04-11T23:36:21.930Z,58.66
2023-04-11T23:38:48.779Z,58.80
2023-04-11T23:41:15.657Z,59.00
2023-04-11T23:43:42.508Z,58.89
2023-04-11T23:46:09.465Z,58.72
2023-04-11T23:48:36.424Z,58.84
2023-04-11T23:51:03.840Z,58.57
2023-04-11T23:53:32.012Z,58.50
2023-04-11T23:55:58.757Z,58.39
2023-04-11T23:58:25.745Z,58.81
